createdAt,value
2022-12-29T00:05:57.104Z,98177.28
2022-12-29T00:12:00.083Z,98182.41
2022-12-29T00:18:01.982Z,98183.44
2022-12-29T00:24:22.950Z,98176.72
2022-12-29T00:30:44.269Z,98184.94
2022-12-29T00:36:46.420Z,98183.44
2022-12-29T00:43:06.560Z,98158.41
2022-12-29T00:49:32.063Z,98170.94
2022-12-29T00:55:39.029Z,98165.34
2022-12-29T01:01:41.682Z,98163.72
2022-12-29T01:07:43.674Z,98164.25
2022-12-29T01:13:45.558Z,98157.19
2022-12-29T01:19:47.489Z,98138.50
2022-12-29T01:25:49.371Z,98123.03
2022-12-29T01:31:51.343Z,98138.81
2022-12-29T01:37:53.292Z,98130.25
2022-12-29T01:44:01.872Z,98115.16
2022-12-29T01:50:34.745Z,98135.31
2022-12-29T01:56:37.422Z,98128.19
2022-12-29T02:02:39.844Z,98126.19
2022-12-29T02:08:43.260Z,98117.03
2022-12-29T02:14:45.902Z,98111.66
2022-12-29T02:21:06.645Z,98105.56
2022-12-29T02:27:12.200Z,98095.00
2022-12-29T02:33:29.598Z,98076.25
2022-12-29T02:39:42.874Z,98069.03
2022-12-29T02:46:01.051Z,98067.63
2022-12-29T02:52:11.698Z,98078.38
2022-12-29T02:58:22.295Z,98088.50
2022-12-29T03:05:25.136Z,98067.66
2022-12-29T03:11:58.120Z,98071.75
2022-12-29T03:18:11.754Z,98054.03
2022-12-29T03:24:14.333Z,98043.88
2022-12-29T03:30:16.810Z,98035.66
2022-12-29T03:36:31.642Z,98029.63
2022-12-29T03:42:37.133Z,98035.22
2022-12-29T03:48:39.024Z,98021.22
2022-12-29T03:54:40.941Z,98023.94
2022-12-29T04:00:42.829Z,98029.41
2022-12-29T04:06:44.697Z,98046.19
2022-12-29T04:12:47.600Z,98039.66
2022-12-29T04:18:49.537Z,98031.34
2022-12-29T04:24:51.415Z,98033.94
2022-12-29T04:30:53.504Z,98025.41
2022-12-29T04:36:55.381Z,98022.16
2022-12-29T04:42:57.318Z,98030.06
2022-12-29T04:48:59.292Z,98024.81
2022-12-29T04:55:01.284Z,98033.19
2022-12-29T05:01:03.242Z,98019.66
2022-12-29T05:07:05.203Z,98020.72
2022-12-29T05:13:07.084Z,98017.38
2022-12-29T05:19:09.640Z,98001.06
2022-12-29T05:25:11.972Z,97996.91
2022-12-29T05:31:13.948Z,97992.56
2022-12-29T05:37:15.896Z,97995.78
2022-12-29T05:43:20.340Z,97996.16
2022-12-29T05:49:22.250Z,98001.41
2022-12-29T05:55:24.131Z,97999.78
2022-12-29T06:01:26.085Z,98012.88
2022-12-29T06:07:28.004Z,97975.06
2022-12-29T06:13:29.987Z,97962.13
2022-12-29T06:19:31.882Z,97938.59
2022-12-29T06:25:34.943Z,97922.66
2022-12-29T06:31:37.189Z,97965.44
2022-12-29T06:37:39.151Z,97975.69
2022-12-29T06:43:41.049Z,97977.78
2022-12-29T06:49:43.016Z,97983.06
2022-12-29T06:55:44.934Z,97975.88
2022-12-29T07:01:47.002Z,97979.91
2022-12-29T07:07:48.978Z,97992.16
2022-12-29T07:13:51.068Z,97974.19
2022-12-29T07:19:52.966Z,97988.53
2022-12-29T07:26:12.276Z,97999.25
2022-12-29T07:32:14.265Z,97994.69
2022-12-29T07:38:17.203Z,97987.00
2022-12-29T07:44:19.515Z,97985.00
2022-12-29T07:50:21.377Z,97996.22
2022-12-29T07:56:23.271Z,97996.81
2022-12-29T08:02:27.242Z,98019.72
2022-12-29T08:08:29.769Z,98013.75
2022-12-29T08:14:31.683Z,98020.84
2022-12-29T08:20:33.975Z,98031.47
2022-12-29T08:26:36.354Z,98042.22
2022-12-29T08:32:38.270Z,98040.34
2022-12-29T08:38:40.149Z,98045.28
2022-12-29T08:44:42.077Z,98050.03
2022-12-29T08:50:45.401Z,98060.41
2022-12-29T08:56:47.296Z,98078.50
2022-12-29T09:02:49.433Z,98069.88
2022-12-29T09:08:51.453Z,98080.06
2022-12-29T09:14:53.409Z,98077.44
2022-12-29T09:21:05.572Z,98080.44
2022-12-29T09:27:07.462Z,98064.03
2022-12-29T09:33:09.720Z,98069.88
2022-12-29T09:39:13.148Z,98084.53
2022-12-29T09:45:21.251Z,98076.63
2022-12-29T09:51:26.364Z,98074.44
2022-12-29T09:57:55.219Z,98075.38
2022-12-29T10:03:59.863Z,98073.25
2022-12-29T10:10:21.354Z,98069.63
2022-12-29T10:16:58.010Z,98084.28
2022-12-29T10:23:33.144Z,98089.44
2022-12-29T10:29:44.571Z,98087.50
2022-12-29T10:35:48.391Z,98090.88
2022-12-29T10:42:31.113Z,98096.03
2022-12-29T10:48:36.239Z,98092.50
2022-12-29T10:54:59.390Z,98087.56
2022-12-29T11:01:01.392Z,98083.16
2022-12-29T11:07:05.309Z,98076.41
2022-12-29T11:13:25.483Z,98073.13
2022-12-29T11:19:36.072Z,98075.81
2022-12-29T11:25:43.081Z,98059.34
2022-12-29T11:31:47.777Z,98061.66
2022-12-29T11:37:59.499Z,98073.91
2022-12-29T11:44:06.362Z,98083.06
2022-12-29T11:50:09.605Z,98078.09
2022-12-29T11:56:41.284Z,98092.84
2022-12-29T12:03:12.713Z,98098.88
2022-12-29T12:09:43.533Z,98102.44
2022-12-29T12:16:09.551Z,98099.19
2022-12-29T12:22:53.428Z,98104.06
2022-12-29T12:29:32.255Z,98119.47
2022-12-29T12:35:50.368Z,98113.28
2022-12-29T12:42:13.749Z,98121.59
2022-12-29T12:48:48.719Z,98120.56
2022-12-29T12:55:51.582Z,98123.06
2022-12-29T13:02:10.965Z,98133.47
2022-12-29T13:08:48.669Z,98139.66
2022-12-29T13:15:14.201Z,98139.97
2022-12-29T13:21:24.668Z,98149.69
2022-12-29T13:27:56.562Z,98151.66
2022-12-29T13:34:17.152Z,98152.25
2022-12-29T13:40:25.024Z,98170.00
2022-12-29T13:46:42.133Z,98174.66
2022-12-29T13:53:01.897Z,98183.53
2022-12-29T13:59:18.573Z,98214.25
2022-12-29T14:05:23.345Z,98210.81
2022-12-29T14:11:36.118Z,98230.44
2022-12-29T14:17:42.236Z,98236.00
2022-12-29T14:23:46.734Z,98238.81
2022-12-29T14:29:52.821Z,98239.50
2022-12-29T14:35:55.895Z,98246.38
2022-12-29T14:42:10.085Z,98241.28
2022-12-29T14:48:43.851Z,98257.59
2022-12-29T15:01:22.967Z,98271.69
2022-12-29T15:07:30.245Z,98280.69
2022-12-29T15:13:39.621Z,98286.78
2022-12-29T15:19:41.584Z,98288.84
2022-12-29T15:26:07.529Z,98288.41
2022-12-29T15:32:25.599Z,98312.72
2022-12-29T15:38:35.848Z,98337.69
2022-12-29T15:44:57.782Z,98338.09
2022-12-29T15:51:12.313Z,98344.31
2022-12-29T15:57:38.419Z,98350.69
2022-12-29T16:03:40.409Z,98351.28
2022-12-29T16:09:48.508Z,98349.94
2022-12-29T16:15:56.573Z,98350.03
2022-12-29T16:22:01.208Z,98354.25
2022-12-29T16:28:16.542Z,98339.69
2022-12-29T16:34:42.940Z,98346.09
2022-12-29T16:41:05.436Z,98359.91
2022-12-29T16:47:21.665Z,98357.38
2022-12-29T16:53:27.847Z,98349.69
2022-12-29T16:59:34.448Z,98352.94
2022-12-29T17:05:36.397Z,98352.19
2022-12-29T17:12:02.514Z,98352.69
2022-12-29T17:18:13.818Z,98350.50
2022-12-29T17:24:23.094Z,98354.44
2022-12-29T17:30:32.905Z,98371.22
2022-12-29T17:36:35.887Z,98369.19
2022-12-29T17:42:45.210Z,98364.78
2022-12-29T17:48:53.296Z,98376.41
2022-12-29T17:55:15.716Z,98375.41
2022-12-29T18:01:22.731Z,98374.28
2022-12-29T18:07:33.900Z,98374.94
2022-12-29T18:13:46.077Z,98377.63
2022-12-29T18:19:52.577Z,98402.13
2022-12-29T18:26:12.453Z,98394.63
2022-12-29T18:32:15.561Z,98402.38
2022-12-29T18:38:17.542Z,98402.66
2022-12-29T18:44:20.366Z,98422.50
2022-12-29T18:50:22.593Z,98425.38
2022-12-29T18:56:24.559Z,98423.56
2022-12-29T19:02:28.343Z,98425.34
2022-12-29T19:08:30.244Z,98432.09
2022-12-29T19:14:32.129Z,98444.25
2022-12-29T19:20:48.916Z,98435.97
2022-12-29T19:26:50.889Z,98432.34
2022-12-29T19:32:56.301Z,98423.56
2022-12-29T19:38:58.404Z,98428.44
2022-12-29T19:45:02.258Z,98429.13
2022-12-29T19:51:09.086Z,98427.16
2022-12-29T19:57:10.997Z,98431.91
2022-12-29T20:03:12.976Z,98427.63
2022-12-29T20:09:15.020Z,98428.06
2022-12-29T20:15:17.026Z,98431.63
2022-12-29T20:21:22.627Z,98448.50
2022-12-29T20:27:30.476Z,98458.09
2022-12-29T20:33:35.562Z,98458.06
2022-12-29T20:39:39.497Z,98469.59
2022-12-29T20:45:41.581Z,98477.16
2022-12-29T21:04:25.938Z,98480.00
2022-12-29T21:10:27.870Z,98487.41
2022-12-29T21:16:29.997Z,98512.44
2022-12-29T21:22:35.041Z,98521.09
2022-12-29T21:28:41.588Z,98514.97
2022-12-29T21:34:43.488Z,98534.34
2022-12-29T21:40:45.406Z,98534.38
2022-12-29T21:46:52.964Z,98548.78
2022-12-29T21:53:00.925Z,98550.22
2022-12-29T21:59:23.576Z,98568.16
2022-12-29T22:05:44.061Z,98570.78
2022-12-29T22:12:10.086Z,98583.53
2022-12-29T22:18:12.075Z,98587.66
2022-12-29T22:24:13.966Z,98608.06
2022-12-29T22:30:22.047Z,98612.97
2022-12-29T22:36:26.324Z,98623.06
2022-12-29T22:42:28.235Z,98620.38
2022-12-29T22:48:33.211Z,98616.28
2022-12-29T22:54:35.160Z,98608.44
2022-12-29T23:00:37.084Z,98624.28
2022-12-29T23:06:40.304Z,98622.63
2022-12-29T23:12:42.251Z,98617.09
2022-12-29T23:18:49.782Z,98623.06
2022-12-29T23:24:51.717Z,98611.53
2022-12-29T23:30:53.744Z,98609.25
2022-12-29T23:36:55.664Z,98618.28
2022-12-29T23:42:57.575Z,98641.13
2022-12-29T23:48:59.961Z,98648.53
2022-12-29T23:55:04.897Z,98670.16
